KETN

Eastland Municipal Airport

Eastland, Texas, USA
METAR KETN 211955Z AUTO 23015KT 10SM BKN050 22/09 A2978 RMK AO2 T02220093
Observed Flight Rules
Jan-21 @ 19:55 UTC (33 minutes ago) Visual Flight Rules
Wind Visibility Clouds
230° at 15 knots 10 miles
  • Broken at 5,000' AGL
Temperatures Readings
Current 22°C / 72°F
Dewpoint 9°C / 48°F
Humidity 44%
Altimeter 29.78" Hg
Pressure 1008 hPa
Elevation 446
METAR KETN 211955Z AUTO 23015KT 10SM BKN050 22/09 A2978 RMK AO2 T02220093
Observed Flight Rules
Jan-21 @ 19:55 UTC
(33 minutes ago)
VFR
Wind Visibility
230° at 15 knots 10 miles
Clouds
  • Broken at 5,000' AGL
Temperature Dewpoint
22°C / 72°F 9°C / 48°F
Humidity Altimeter Pressure
44% 29.78" Hg 1008 hPa